createdAt,value
2023-12-11T00:00:40.203Z,95474.38
2023-12-11T00:03:28.636Z,95476.94
2023-12-11T00:05:57.082Z,95474.46
2023-12-11T00:08:25.648Z,95474.93
2023-12-11T00:10:53.866Z,95479.61
2023-12-11T00:13:22.670Z,95478.23
2023-12-11T00:15:50.963Z,95481.58
2023-12-11T00:18:19.228Z,95477.98
2023-12-11T00:20:47.544Z,95474.50
2023-12-11T00:23:15.669Z,95470.08
2023-12-11T00:25:48.225Z,95465.98
2023-12-11T00:28:16.473Z,95464.23
2023-12-11T00:30:45.089Z,95459.70
2023-12-11T00:33:13.386Z,95464.01
2023-12-11T00:35:41.861Z,95465.95
2023-12-11T00:38:10.261Z,95468.70
2023-12-11T00:40:38.460Z,95472.35
2023-12-11T00:43:06.741Z,95470.23
2023-12-11T00:45:34.991Z,95461.88
2023-12-11T00:48:03.332Z,95458.83
2023-12-11T00:50:31.683Z,95454.23
2023-12-11T00:52:59.859Z,95446.73
2023-12-11T00:55:28.125Z,95442.61
2023-12-11T00:57:56.352Z,95445.73
2023-12-11T01:00:24.501Z,95444.33
2023-12-11T01:02:52.643Z,95437.73
2023-12-11T01:05:20.814Z,95436.89
2023-12-11T01:07:49.234Z,95430.04
2023-12-11T01:10:17.718Z,95428.48
2023-12-11T01:12:45.926Z,95422.84
2023-12-11T01:15:14.138Z,95423.59
2023-12-11T01:17:44.964Z,95422.01
2023-12-11T01:20:13.478Z,95425.71
2023-12-11T01:22:42.700Z,95429.28
2023-12-11T01:25:11.066Z,95425.48
2023-12-11T01:27:39.412Z,95422.48
2023-12-11T01:30:08.465Z,95427.13
2023-12-11T01:32:36.735Z,95428.02
2023-12-11T01:35:05.159Z,95430.83
2023-12-11T01:37:33.305Z,95424.21
2023-12-11T01:40:01.619Z,95417.88
2023-12-11T01:42:29.808Z,95407.49
2023-12-11T01:44:57.941Z,95403.90
2023-12-11T01:47:26.104Z,95413.10
2023-12-11T01:49:54.406Z,95411.30
2023-12-11T01:52:23.743Z,95409.70
2023-12-11T01:54:52.898Z,95414.72
2023-12-11T01:57:21.328Z,95414.75
2023-12-11T01:59:49.711Z,95418.19
2023-12-11T02:02:21.411Z,95418.20
2023-12-11T02:04:55.296Z,95416.95
2023-12-11T02:07:23.754Z,95410.29
2023-12-11T02:09:52.112Z,95411.62
2023-12-11T02:12:20.360Z,95412.95
2023-12-11T02:14:48.721Z,95407.41
2023-12-11T02:17:17.214Z,95403.00
2023-12-11T02:19:45.446Z,95405.09
2023-12-11T02:22:14.699Z,95413.57
2023-12-11T02:24:59.485Z,95421.60
2023-12-11T02:27:28.418Z,95425.82
2023-12-11T02:29:57.374Z,95426.94
2023-12-11T02:32:25.508Z,95428.46
2023-12-11T02:34:53.804Z,95427.28
2023-12-11T02:37:21.965Z,95431.86
2023-12-11T02:39:50.230Z,95433.63
2023-12-11T02:42:18.428Z,95440.43
2023-12-11T02:44:46.636Z,95443.48
2023-12-11T02:47:14.747Z,95438.52
2023-12-11T02:49:43.074Z,95430.42
2023-12-11T02:52:11.486Z,95427.34
2023-12-11T02:54:39.997Z,95436.56
2023-12-11T02:57:08.144Z,95438.79
2023-12-11T02:59:36.372Z,95439.05
2023-12-11T03:02:04.694Z,95442.69
2023-12-11T03:04:33.094Z,95442.02
2023-12-11T03:07:01.500Z,95440.14
2023-12-11T03:09:29.667Z,95436.02
2023-12-11T03:11:57.859Z,95439.84
2023-12-11T03:14:26.016Z,95440.95
2023-12-11T03:16:54.204Z,95444.79
2023-12-11T03:19:22.368Z,95448.90
2023-12-11T03:21:50.792Z,95445.58
2023-12-11T03:24:18.975Z,95444.84
2023-12-11T03:26:47.087Z,95444.25
2023-12-11T03:29:15.219Z,95443.47
2023-12-11T03:31:43.421Z,95440.94
2023-12-11T03:34:11.629Z,95437.30
2023-12-11T03:36:39.932Z,95433.20
2023-12-11T03:39:09.001Z,95428.63
2023-12-11T03:41:40.086Z,95425.23
2023-12-11T03:44:08.364Z,95423.13
2023-12-11T03:46:36.636Z,95422.52
2023-12-11T03:49:05.116Z,95418.27
2023-12-11T03:51:33.418Z,95414.08
2023-12-11T03:54:02.176Z,95420.77
2023-12-11T03:56:30.371Z,95426.56
2023-12-11T03:58:58.632Z,95428.23
2023-12-11T04:01:26.869Z,95432.23
2023-12-11T04:03:55.759Z,95435.45
2023-12-11T04:06:24.041Z,95440.12
2023-12-11T04:08:52.400Z,95443.03
2023-12-11T04:11:20.615Z,95448.21
2023-12-11T04:13:48.815Z,95452.34
2023-12-11T04:16:17.017Z,95454.95
2023-12-11T04:18:45.199Z,95462.03
2023-12-11T04:21:13.679Z,95457.73
2023-12-11T04:23:41.826Z,95453.29
2023-12-11T04:26:10.089Z,95454.05
2023-12-11T04:28:38.263Z,95459.64
2023-12-11T04:31:06.695Z,95455.05
2023-12-11T04:33:39.291Z,95450.48
2023-12-11T04:36:09.954Z,95446.02
2023-12-11T04:38:38.185Z,95450.76
2023-12-11T04:41:06.598Z,95451.15
2023-12-11T04:43:34.842Z,95450.48
2023-12-11T04:46:03.255Z,95441.92
2023-12-11T04:48:32.153Z,95438.82
2023-12-11T04:51:00.453Z,95440.23
2023-12-11T04:53:28.528Z,95440.10
2023-12-11T04:55:56.740Z,95440.77
2023-12-11T04:58:25.032Z,95439.44
2023-12-11T05:00:53.340Z,95438.04
2023-12-11T05:03:21.537Z,95432.27
2023-12-11T05:05:49.872Z,95428.38
2023-12-11T05:08:18.053Z,95428.73
2023-12-11T05:10:46.332Z,95425.52
2023-12-11T05:13:14.489Z,95424.65
2023-12-11T05:15:42.759Z,95429.45
2023-12-11T05:18:11.497Z,95431.78
2023-12-11T05:20:39.741Z,95437.53
2023-12-11T05:23:08.098Z,95435.86
2023-12-11T05:25:36.317Z,95432.29
2023-12-11T05:28:04.593Z,95429.02
2023-12-11T05:30:33.060Z,95433.05
2023-12-11T05:33:01.421Z,95437.39
2023-12-11T05:35:29.798Z,95443.06
2023-12-11T05:37:59.893Z,95439.02
2023-12-11T05:40:28.382Z,95437.87
2023-12-11T05:42:56.753Z,95438.49
2023-12-11T05:45:24.868Z,95444.70
2023-12-11T05:47:53.184Z,95448.10
2023-12-11T05:50:21.654Z,95450.73
2023-12-11T05:52:49.816Z,95446.10
2023-12-11T05:55:18.156Z,95445.60
2023-12-11T05:57:48.713Z,95451.15
2023-12-11T06:00:17.991Z,95450.41
2023-12-11T06:02:46.124Z,95452.95
2023-12-11T06:05:14.623Z,95455.83
2023-12-11T06:07:43.238Z,95455.33
2023-12-11T06:10:11.466Z,95451.96
2023-12-11T06:12:39.753Z,95452.37
2023-12-11T06:15:08.710Z,95464.44
2023-12-11T06:17:37.156Z,95462.31
2023-12-11T06:20:06.688Z,95466.52
2023-12-11T06:22:34.869Z,95468.49
2023-12-11T06:25:04.459Z,95475.09
2023-12-11T06:27:32.901Z,95475.35
2023-12-11T06:30:01.350Z,95480.92
2023-12-11T06:32:29.830Z,95481.63
2023-12-11T06:34:58.258Z,95493.45
2023-12-11T06:37:26.741Z,95488.26
2023-12-11T06:39:55.288Z,95482.61
2023-12-11T06:42:23.685Z,95477.80
2023-12-11T06:44:51.744Z,95470.41
2023-12-11T06:47:19.865Z,95467.29
2023-12-11T06:49:48.391Z,95468.67
2023-12-11T06:52:17.234Z,95461.52
2023-12-11T06:54:45.653Z,95460.98
2023-12-11T06:57:14.854Z,95467.73
2023-12-11T06:59:43.012Z,95474.66
2023-12-11T07:02:11.832Z,95464.73
2023-12-11T07:04:43.494Z,95461.09
2023-12-11T07:07:11.902Z,95460.05
2023-12-11T07:09:40.161Z,95462.95
2023-12-11T07:12:09.382Z,95463.90
2023-12-11T07:14:37.560Z,95465.16
2023-12-11T07:17:05.765Z,95458.46
2023-12-11T07:19:33.977Z,95449.23
2023-12-11T07:22:02.205Z,95441.34
2023-12-11T07:24:30.398Z,95431.46
2023-12-11T07:26:58.911Z,95436.12
2023-12-11T07:29:27.305Z,95439.93
2023-12-11T07:31:55.492Z,95438.92
2023-12-11T07:34:23.789Z,95451.62
2023-12-11T07:36:52.993Z,95455.55
2023-12-11T07:39:22.026Z,95445.13
2023-12-11T07:41:50.216Z,95438.19
2023-12-11T07:44:19.273Z,95422.20
2023-12-11T07:46:47.280Z,95421.25
2023-12-11T07:49:15.672Z,95416.51
2023-12-11T07:51:44.688Z,95420.08
2023-12-11T07:54:13.415Z,95415.36
2023-12-11T07:56:42.172Z,95412.69
2023-12-11T07:59:12.157Z,95417.73
2023-12-11T08:01:40.685Z,95413.26
2023-12-11T08:04:09.504Z,95402.54
2023-12-11T08:06:44.143Z,95387.83
2023-12-11T08:09:12.777Z,95388.85
2023-12-11T08:11:41.157Z,95383.75
2023-12-11T08:14:09.370Z,95374.38
2023-12-11T08:16:37.509Z,95374.48
2023-12-11T08:19:05.939Z,95375.69
2023-12-11T08:21:34.171Z,95371.96
2023-12-11T08:24:02.442Z,95372.63
2023-12-11T08:26:30.682Z,95368.32
2023-12-11T08:29:00.669Z,95363.16
2023-12-11T08:31:29.341Z,95367.23
2023-12-11T08:33:57.949Z,95363.14
2023-12-11T08:36:26.302Z,95361.19
2023-12-11T08:38:54.821Z,95360.27
2023-12-11T08:41:23.027Z,95355.90
2023-12-11T08:43:51.200Z,95356.44
2023-12-11T08:46:19.423Z,95351.22
2023-12-11T08:48:47.680Z,95344.06
2023-12-11T08:51:20.266Z,95333.89
2023-12-11T08:53:48.380Z,95328.43
2023-12-11T08:56:19.793Z,95317.42
2023-12-11T08:58:48.374Z,95318.91
2023-12-11T09:01:16.807Z,95320.24
2023-12-11T09:03:45.802Z,95317.90
2023-12-11T09:06:16.910Z,95323.42
2023-12-11T09:08:45.301Z,95327.80
2023-12-11T09:11:13.524Z,95330.85
2023-12-11T09:13:42.439Z,95329.03
2023-12-11T09:16:10.860Z,95331.23
2023-12-11T09:18:39.398Z,95324.41
2023-12-11T09:21:07.720Z,95320.52
2023-12-11T09:23:36.144Z,95317.34
2023-12-11T09:26:04.468Z,95319.02
2023-12-11T09:28:37.939Z,95321.94
2023-12-11T09:31:12.885Z,95321.27
2023-12-11T09:33:41.929Z,95325.29
2023-12-11T09:36:10.850Z,95327.38
2023-12-11T09:38:39.052Z,95324.77
2023-12-11T09:41:08.722Z,95323.20
2023-12-11T09:43:37.641Z,95318.31
2023-12-11T09:46:13.550Z,95304.93
2023-12-11T09:48:42.435Z,95294.31
2023-12-11T09:51:13.655Z,95301.52
2023-12-11T09:53:42.724Z,95300.20
2023-12-11T09:56:14.216Z,95289.23
2023-12-11T09:58:44.723Z,95282.27
2023-12-11T10:01:14.608Z,95279.73
2023-12-11T10:03:42.995Z,95272.23
2023-12-11T10:06:11.349Z,95259.69
2023-12-11T10:08:53.749Z,95253.55
2023-12-11T10:11:23.699Z,95259.70
2023-12-11T10:13:52.100Z,95259.09
2023-12-11T10:16:36.875Z,95259.30
2023-12-11T10:19:05.331Z,95246.77
2023-12-11T10:21:42.011Z,95242.91
2023-12-11T10:24:16.249Z,95241.45
2023-12-11T10:26:54.278Z,95240.63
2023-12-11T10:29:24.892Z,95235.67
2023-12-11T10:32:00.485Z,95227.20
2023-12-11T10:34:47.747Z,95223.25
2023-12-11T10:37:16.356Z,95216.70
2023-12-11T10:39:57.890Z,95220.11
2023-12-11T10:42:26.830Z,95209.77
2023-12-11T10:44:56.970Z,95200.05
2023-12-11T10:47:25.898Z,95188.93
2023-12-11T10:49:54.265Z,95187.17
2023-12-11T10:52:22.398Z,95186.80
2023-12-11T10:54:50.719Z,95185.09
2023-12-11T10:57:21.186Z,95179.95
2023-12-11T10:59:52.157Z,95180.02
2023-12-11T11:02:23.472Z,95193.56
2023-12-11T11:04:52.375Z,95187.64
2023-12-11T11:07:29.777Z,95178.84
2023-12-11T11:10:21.553Z,95168.88
2023-12-11T11:12:59.682Z,95163.58
2023-12-11T11:15:28.863Z,95151.05
2023-12-11T11:17:57.732Z,95159.93
2023-12-11T11:20:36.894Z,95151.52
2023-12-11T11:23:18.063Z,95144.52
2023-12-11T11:25:54.368Z,95136.59
2023-12-11T11:28:44.341Z,95126.39
2023-12-11T11:31:23.148Z,95114.61
2023-12-11T11:33:57.879Z,95114.75
2023-12-11T11:36:46.534Z,95123.16
2023-12-11T11:39:15.515Z,95125.67
2023-12-11T11:41:45.464Z,95133.64
2023-12-11T11:44:16.014Z,95137.71
2023-12-11T11:46:57.294Z,95139.45
2023-12-11T11:49:36.807Z,95138.25
2023-12-11T11:52:06.807Z,95135.14
2023-12-11T11:54:40.208Z,95140.84
2023-12-11T11:57:08.732Z,95143.21
2023-12-11T11:59:46.471Z,95142.92
2023-12-11T12:02:23.573Z,95136.73
2023-12-11T12:04:52.137Z,95139.39
2023-12-11T12:07:20.980Z,95143.27
2023-12-11T12:09:55.378Z,95144.58
2023-12-11T12:12:23.589Z,95140.44
2023-12-11T12:15:03.424Z,95131.06
2023-12-11T12:17:32.668Z,95127.61
2023-12-11T12:20:19.021Z,95128.59
2023-12-11T12:23:01.012Z,95127.22
2023-12-11T12:25:30.852Z,95126.77
2023-12-11T12:28:19.698Z,95127.89
2023-12-11T12:30:48.061Z,95129.00
2023-12-11T12:33:19.864Z,95129.98
2023-12-11T12:35:50.167Z,95135.63
2023-12-11T12:38:19.595Z,95146.85
2023-12-11T12:40:47.890Z,95151.48
2023-12-11T12:43:16.110Z,95153.80
2023-12-11T12:45:45.097Z,95151.23
2023-12-11T12:48:14.734Z,95152.48
2023-12-11T12:50:43.013Z,95154.61
2023-12-11T12:53:14.827Z,95152.00
2023-12-11T12:55:43.351Z,95148.02
2023-12-11T12:58:15.429Z,95150.99
2023-12-11T13:00:45.906Z,95154.45
2023-12-11T13:03:14.493Z,95148.55
2023-12-11T13:05:45.419Z,95150.77
2023-12-11T13:08:17.674Z,95151.64
2023-12-11T13:10:57.404Z,95150.05
2023-12-11T13:13:28.415Z,95146.91
2023-12-11T13:15:57.824Z,95140.97
2023-12-11T13:18:26.532Z,95145.30
2023-12-11T13:20:54.995Z,95148.23
2023-12-11T13:23:25.216Z,95150.50
2023-12-11T13:25:53.408Z,95144.77
2023-12-11T13:28:21.697Z,95144.89
2023-12-11T13:30:49.980Z,95150.56
2023-12-11T13:33:18.876Z,95157.81
2023-12-11T13:35:47.092Z,95159.14
2023-12-11T13:38:15.196Z,95163.08
2023-12-11T13:40:43.475Z,95164.24
2023-12-11T13:43:12.882Z,95167.45
2023-12-11T13:45:41.347Z,95159.39
2023-12-11T13:48:09.744Z,95163.11
2023-12-11T13:50:38.130Z,95158.04
2023-12-11T13:53:06.266Z,95166.33
2023-12-11T13:55:34.489Z,95172.73
2023-12-11T13:58:02.815Z,95179.46
2023-12-11T14:00:30.981Z,95179.59
2023-12-11T14:03:03.739Z,95181.73
2023-12-11T14:05:34.726Z,95180.58
2023-12-11T14:08:04.322Z,95188.81
2023-12-11T14:10:34.889Z,95192.94
2023-12-11T14:13:03.678Z,95193.39
2023-12-11T14:15:32.196Z,95201.30
2023-12-11T14:18:00.567Z,95209.05
2023-12-11T14:20:28.813Z,95216.12
2023-12-11T14:22:57.035Z,95212.61
2023-12-11T14:25:27.471Z,95208.89
2023-12-11T14:27:55.881Z,95204.46
2023-12-11T14:30:24.059Z,95205.81
2023-12-11T14:32:52.327Z,95205.45
2023-12-11T14:35:20.786Z,95210.22
2023-12-11T14:37:48.963Z,95210.13
2023-12-11T14:40:17.232Z,95209.51
2023-12-11T14:42:45.425Z,95210.43
2023-12-11T14:45:13.640Z,95214.13
2023-12-11T14:47:41.759Z,95211.45
2023-12-11T14:50:10.409Z,95211.85
2023-12-11T14:52:38.765Z,95211.56
2023-12-11T14:55:08.513Z,95206.07
2023-12-11T14:57:38.068Z,95208.72
2023-12-11T15:00:07.443Z,95213.79
2023-12-11T15:02:35.607Z,95213.69
2023-12-11T15:05:04.065Z,95210.84
2023-12-11T15:07:32.599Z,95210.94
2023-12-11T15:10:01.180Z,95203.73
2023-12-11T15:12:29.294Z,95204.83
2023-12-11T15:14:57.792Z,95199.77
2023-12-11T15:17:26.205Z,95194.03
2023-12-11T15:19:54.661Z,95195.73
2023-12-11T15:22:22.860Z,95188.10
2023-12-11T15:24:51.565Z,95177.45
2023-12-11T15:27:20.274Z,95170.98
2023-12-11T15:29:48.566Z,95173.95
2023-12-11T15:32:17.153Z,95180.38
2023-12-11T15:34:45.317Z,95183.10
2023-12-11T15:37:13.597Z,95179.53
2023-12-11T15:39:41.934Z,95179.33
2023-12-11T15:42:10.523Z,95179.48
2023-12-11T15:44:38.760Z,95184.88
2023-12-11T15:47:08.315Z,95189.98
2023-12-11T15:49:37.785Z,95185.65
2023-12-11T15:52:07.684Z,95179.20
2023-12-11T15:54:37.302Z,95171.30
2023-12-11T15:57:05.740Z,95177.17
2023-12-11T15:59:33.960Z,95169.55
2023-12-11T16:02:02.115Z,95165.58
2023-12-11T16:04:30.377Z,95164.19
2023-12-11T16:06:58.722Z,95163.00
2023-12-11T16:09:27.057Z,95155.23
2023-12-11T16:11:55.222Z,95150.87
2023-12-11T16:14:23.392Z,95143.55
2023-12-11T16:16:51.582Z,95133.31
2023-12-11T16:19:20.609Z,95130.33
2023-12-11T16:21:49.366Z,95137.48
2023-12-11T16:24:17.803Z,95136.02
2023-12-11T16:26:46.961Z,95123.30
2023-12-11T16:29:15.151Z,95117.30
2023-12-11T16:31:43.374Z,95122.87
2023-12-11T16:34:11.750Z,95125.16
2023-12-11T16:36:39.992Z,95110.13
2023-12-11T16:39:08.334Z,95111.48
2023-12-11T16:41:36.781Z,95113.89
2023-12-11T16:44:05.609Z,95109.21
2023-12-11T16:46:34.174Z,95108.06
2023-12-11T16:49:04.263Z,95106.17
2023-12-11T16:51:32.673Z,95112.40
2023-12-11T16:54:00.765Z,95113.39
2023-12-11T16:56:28.845Z,95115.44
2023-12-11T16:58:57.067Z,95116.85
2023-12-11T17:01:25.546Z,95122.29
2023-12-11T17:03:53.968Z,95112.97
2023-12-11T17:06:22.983Z,95105.87
2023-12-11T17:08:51.388Z,95098.25
2023-12-11T17:11:20.241Z,95094.88
2023-12-11T17:13:48.430Z,95092.95
2023-12-11T17:16:16.589Z,95099.05
2023-12-11T17:18:45.100Z,95103.96
2023-12-11T17:21:21.978Z,95107.48
2023-12-11T17:23:53.949Z,95096.46
2023-12-11T17:26:22.875Z,95092.15
2023-12-11T17:28:51.935Z,95081.09
2023-12-11T17:31:20.259Z,95084.29
2023-12-11T17:33:48.707Z,95090.02
2023-12-11T17:36:17.031Z,95087.60
2023-12-11T17:38:46.215Z,95089.51
2023-12-11T17:41:14.337Z,95075.30
2023-12-11T17:43:42.500Z,95070.80
2023-12-11T17:46:11.035Z,95063.20
2023-12-11T17:48:39.656Z,95061.33
2023-12-11T17:51:10.137Z,95066.14
2023-12-11T17:53:39.635Z,95064.58
2023-12-11T17:56:10.742Z,95056.17
2023-12-11T17:58:39.701Z,95050.83
2023-12-11T18:01:08.941Z,95039.61
2023-12-11T18:03:37.270Z,95036.73
2023-12-11T18:06:06.823Z,95044.88
2023-12-11T18:08:35.027Z,95039.65
2023-12-11T18:11:03.172Z,95041.52
2023-12-11T18:13:32.067Z,95043.96
2023-12-11T18:16:00.296Z,95045.67
2023-12-11T18:18:28.661Z,95045.13
2023-12-11T18:20:56.818Z,95041.80
2023-12-11T18:23:24.957Z,95042.29
2023-12-11T18:25:53.184Z,95042.27
2023-12-11T18:28:21.425Z,95041.36
2023-12-11T18:30:49.722Z,95031.83
2023-12-11T18:33:17.860Z,95030.42
2023-12-11T18:35:46.210Z,95031.27
2023-12-11T18:38:14.455Z,95038.50
2023-12-11T18:40:42.659Z,95036.19
2023-12-11T18:43:10.902Z,95037.20
2023-12-11T18:45:39.261Z,95031.46
2023-12-11T18:48:07.413Z,95026.61
2023-12-11T18:50:35.645Z,95034.02
2023-12-11T18:53:03.661Z,95039.33
2023-12-11T18:55:32.973Z,95045.38
2023-12-11T18:58:02.285Z,95053.15
2023-12-11T19:00:30.793Z,95055.73
2023-12-11T19:02:59.171Z,95055.73
2023-12-11T19:05:31.122Z,95051.59
2023-12-11T19:07:59.206Z,95052.14
2023-12-11T19:10:27.394Z,95053.06
2023-12-11T19:12:57.034Z,95054.71
2023-12-11T19:15:25.331Z,95065.45
2023-12-11T19:17:54.074Z,95059.98
2023-12-11T19:20:22.867Z,95060.02
2023-12-11T19:22:51.009Z,95062.95
2023-12-11T19:25:19.244Z,95066.34
2023-12-11T19:27:47.530Z,95057.61
2023-12-11T19:30:15.759Z,95049.14
2023-12-11T19:32:43.933Z,95060.14
2023-12-11T19:35:12.747Z,95069.77
2023-12-11T19:37:41.019Z,95077.02
2023-12-11T19:40:09.857Z,95083.36
2023-12-11T19:42:44.517Z,95082.86
2023-12-11T19:45:16.685Z,95087.58
2023-12-11T19:47:45.966Z,95085.14
2023-12-11T19:50:14.352Z,95079.95
2023-12-11T19:52:50.828Z,95083.25
2023-12-11T19:55:20.400Z,95080.09
2023-12-11T19:57:48.736Z,95076.85
2023-12-11T20:00:17.659Z,95068.95
2023-12-11T20:02:47.699Z,95066.23
2023-12-11T20:05:16.301Z,95057.81
2023-12-11T20:07:44.778Z,95057.87
2023-12-11T20:10:13.191Z,95066.36
2023-12-11T20:12:41.302Z,95069.30
2023-12-11T20:15:13.014Z,95062.89
2023-12-11T20:17:41.831Z,95064.56
2023-12-11T20:20:10.707Z,95069.21
2023-12-11T20:22:38.902Z,95070.91
2023-12-11T20:25:07.306Z,95069.15
2023-12-11T20:27:35.903Z,95072.58
2023-12-11T20:30:04.436Z,95076.54
2023-12-11T20:32:33.774Z,95078.80
2023-12-11T20:35:03.182Z,95079.34
2023-12-11T20:37:31.898Z,95080.52
2023-12-11T20:40:00.556Z,95077.38
2023-12-11T20:42:28.886Z,95066.80
2023-12-11T20:44:57.196Z,95062.63
2023-12-11T20:47:25.804Z,95057.94
2023-12-11T20:49:54.293Z,95056.08
2023-12-11T20:52:22.623Z,95057.81
2023-12-11T20:54:51.023Z,95052.95
2023-12-11T20:57:19.239Z,95056.62
2023-12-11T20:59:47.522Z,95059.56
2023-12-11T21:02:18.230Z,95064.97
2023-12-11T21:04:46.323Z,95060.03
2023-12-11T21:07:14.657Z,95048.50
2023-12-11T21:09:45.269Z,95043.35
2023-12-11T21:12:13.608Z,95048.03
2023-12-11T21:14:41.757Z,95055.89
2023-12-11T21:17:09.823Z,95052.96
2023-12-11T21:19:38.071Z,95047.61
2023-12-11T21:22:06.465Z,95045.95
2023-12-11T21:24:34.672Z,95043.23
2023-12-11T21:27:04.085Z,95047.23
2023-12-11T21:29:32.321Z,95048.56
2023-12-11T21:32:00.743Z,95048.17
2023-12-11T21:34:28.978Z,95044.33
2023-12-11T21:36:57.403Z,95044.16
2023-12-11T21:39:25.649Z,95049.67
2023-12-11T21:41:53.998Z,95047.89
2023-12-11T21:44:22.136Z,95048.90
2023-12-11T21:46:50.406Z,95046.44
2023-12-11T21:49:20.730Z,95043.11
2023-12-11T21:51:52.095Z,95040.98
2023-12-11T21:54:20.335Z,95045.33
2023-12-11T21:56:48.506Z,95050.34
2023-12-11T21:59:17.164Z,95051.66
2023-12-11T22:01:45.320Z,95056.77
2023-12-11T22:04:15.341Z,95063.35
2023-12-11T22:06:43.711Z,95065.24
2023-12-11T22:09:11.957Z,95066.79
2023-12-11T22:11:40.161Z,95066.41
2023-12-11T22:14:08.246Z,95061.89
2023-12-11T22:16:39.679Z,95055.48
2023-12-11T22:19:12.257Z,95059.66
2023-12-11T22:21:40.596Z,95063.33
2023-12-11T22:24:08.706Z,95060.60
2023-12-11T22:26:41.437Z,95053.52
2023-12-11T22:29:09.952Z,95053.36
2023-12-11T22:31:41.839Z,95046.94
2023-12-11T22:34:10.105Z,95044.21
2023-12-11T22:36:38.660Z,95037.67
2023-12-11T22:39:06.937Z,95037.52
2023-12-11T22:41:35.264Z,95041.41
2023-12-11T22:44:03.419Z,95037.34
2023-12-11T22:46:31.900Z,95036.94
2023-12-11T22:49:00.149Z,95036.01
2023-12-11T22:51:28.349Z,95037.81
2023-12-11T22:53:56.501Z,95038.33
2023-12-11T22:56:24.724Z,95038.23
2023-12-11T22:58:53.785Z,95033.90
2023-12-11T23:01:22.158Z,95028.19
2023-12-11T23:03:50.399Z,95029.40
2023-12-11T23:06:18.712Z,95028.86
2023-12-11T23:08:46.837Z,95025.17
2023-12-11T23:11:15.338Z,95022.16
2023-12-11T23:13:43.490Z,95025.10
2023-12-11T23:16:11.522Z,95021.27
2023-12-11T23:18:39.714Z,95018.13
2023-12-11T23:21:18.054Z,95017.07
2023-12-11T23:23:46.897Z,95021.75
2023-12-11T23:26:15.189Z,95018.59
2023-12-11T23:28:43.290Z,95016.64
2023-12-11T23:31:11.691Z,95021.66
2023-12-11T23:33:40.117Z,95022.70
2023-12-11T23:36:08.719Z,95025.27
2023-12-11T23:38:36.975Z,95030.25
2023-12-11T23:41:05.841Z,95041.30
2023-12-11T23:43:33.982Z,95051.69
2023-12-11T23:46:02.353Z,95058.76
2023-12-11T23:48:30.600Z,95060.48
2023-12-11T23:50:58.876Z,95060.29
2023-12-11T23:53:27.025Z,95064.95
2023-12-11T23:55:55.265Z,95069.44
2023-12-11T23:58:23.592Z,95070.77
